sensor_id;sensor_type;location;lat;lon;timestamp;temperature;humidity
69464;DHT22;56665;41.106;16.688;2023-05-13T00:02:56;16.49;85.66
69464;DHT22;56665;41.106;16.688;2023-05-13T00:06:00;16.55;86.31
69464;DHT22;56665;41.106;16.688;2023-05-13T00:09:04;16.65;86.17
69464;DHT22;56665;41.106;16.688;2023-05-13T00:12:08;16.66;85.69
69464;DHT22;56665;41.106;16.688;2023-05-13T00:15:12;16.68;85.74
69464;DHT22;56665;41.106;16.688;2023-05-13T00:18:15;16.69;85.66
69464;DHT22;56665;41.106;16.688;2023-05-13T00:21:19;16.73;85.74
69464;DHT22;56665;41.106;16.688;2023-05-13T00:24:23;16.79;85.28
69464;DHT22;56665;41.106;16.688;2023-05-13T00:27:26;16.82;85.01
69464;DHT22;56665;41.106;16.688;2023-05-13T00:30:30;16.77;85.23
69464;DHT22;56665;41.106;16.688;2023-05-13T00:33:34;16.83;85.05
69464;DHT22;56665;41.106;16.688;2023-05-13T00:36:38;16.83;85.39
69464;DHT22;56665;41.106;16.688;2023-05-13T00:39:42;16.85;84.94
69464;DHT22;56665;41.106;16.688;2023-05-13T00:42:46;16.93;85.21
69464;DHT22;56665;41.106;16.688;2023-05-13T00:45:50;16.92;84.61
69464;DHT22;56665;41.106;16.688;2023-05-13T00:48:53;16.83;84.41
69464;DHT22;56665;41.106;16.688;2023-05-13T00:51:58;16.80;85.33
69464;DHT22;56665;41.106;16.688;2023-05-13T00:55:02;16.85;84.91
69464;DHT22;56665;41.106;16.688;2023-05-13T00:58:06;16.86;84.97
69464;DHT22;56665;41.106;16.688;2023-05-13T01:04:19;16.70;85.29
69464;DHT22;56665;41.106;16.688;2023-05-13T01:07:43;16.70;85.09
69464;DHT22;56665;41.106;16.688;2023-05-13T01:14:08;16.68;84.62
69464;DHT22;56665;41.106;16.688;2023-05-13T01:17:17;16.59;84.35
69464;DHT22;56665;41.106;16.688;2023-05-13T01:20:22;16.55;84.89
69464;DHT22;56665;41.106;16.688;2023-05-13T01:23:26;16.52;85.22
69464;DHT22;56665;41.106;16.688;2023-05-13T01:26:30;16.51;85.22
69464;DHT22;56665;41.106;16.688;2023-05-13T01:29:35;16.46;85.26
69464;DHT22;56665;41.106;16.688;2023-05-13T01:32:40;16.45;85.33
69464;DHT22;56665;41.106;16.688;2023-05-13T01:35:45;16.48;85.10
69464;DHT22;56665;41.106;16.688;2023-05-13T01:38:51;16.46;85.07
69464;DHT22;56665;41.106;16.688;2023-05-13T01:41:57;16.45;84.96
69464;DHT22;56665;41.106;16.688;2023-05-13T01:45:02;16.44;84.87
69464;DHT22;56665;41.106;16.688;2023-05-13T01:48:05;16.32;84.95
69464;DHT22;56665;41.106;16.688;2023-05-13T01:51:18;16.32;85.33
69464;DHT22;56665;41.106;16.688;2023-05-13T01:54:22;16.28;85.31
69464;DHT22;56665;41.106;16.688;2023-05-13T01:57:31;16.24;85.21
69464;DHT22;56665;41.106;16.688;2023-05-13T02:00:34;16.18;85.42
69464;DHT22;56665;41.106;16.688;2023-05-13T02:03:38;16.20;85.40
69464;DHT22;56665;41.106;16.688;2023-05-13T02:06:42;16.20;85.59
69464;DHT22;56665;41.106;16.688;2023-05-13T02:09:46;16.17;85.56
69464;DHT22;56665;41.106;16.688;2023-05-13T02:12:50;16.20;85.24
69464;DHT22;56665;41.106;16.688;2023-05-13T02:15:55;16.21;85.11
69464;DHT22;56665;41.106;16.688;2023-05-13T02:18:59;16.22;84.92
69464;DHT22;56665;41.106;16.688;2023-05-13T02:22:06;16.22;84.84
69464;DHT22;56665;41.106;16.688;2023-05-13T02:25:09;16.21;84.76
69464;DHT22;56665;41.106;16.688;2023-05-13T02:28:13;16.20;84.52
69464;DHT22;56665;41.106;16.688;2023-05-13T02:31:18;16.11;84.75
69464;DHT22;56665;41.106;16.688;2023-05-13T02:34:21;16.08;84.92
69464;DHT22;56665;41.106;16.688;2023-05-13T02:37:25;16.11;85.00
69464;DHT22;56665;41.106;16.688;2023-05-13T02:40:36;16.10;84.87
69464;DHT22;56665;41.106;16.688;2023-05-13T02:43:40;16.10;84.89
69464;DHT22;56665;41.106;16.688;2023-05-13T02:46:45;16.07;84.82
69464;DHT22;56665;41.106;16.688;2023-05-13T02:49:48;16.06;84.91
69464;DHT22;56665;41.106;16.688;2023-05-13T02:52:53;16.00;85.23
69464;DHT22;56665;41.106;16.688;2023-05-13T02:55:57;16.07;85.05
69464;DHT22;56665;41.106;16.688;2023-05-13T02:59:03;15.98;85.11
69464;DHT22;56665;41.106;16.688;2023-05-13T03:02:07;15.98;85.46
69464;DHT22;56665;41.106;16.688;2023-05-13T03:05:11;15.97;85.03
69464;DHT22;56665;41.106;16.688;2023-05-13T03:08:14;15.96;84.89
69464;DHT22;56665;41.106;16.688;2023-05-13T03:11:18;15.91;85.03
69464;DHT22;56665;41.106;16.688;2023-05-13T03:14:22;15.90;84.93
69464;DHT22;56665;41.106;16.688;2023-05-13T03:17:26;15.87;84.59
69464;DHT22;56665;41.106;16.688;2023-05-13T03:20:32;15.83;84.61
69464;DHT22;56665;41.106;16.688;2023-05-13T03:23:39;15.81;85.01
69464;DHT22;56665;41.106;16.688;2023-05-13T03:26:43;15.81;84.93
69464;DHT22;56665;41.106;16.688;2023-05-13T03:29:47;15.80;84.98
69464;DHT22;56665;41.106;16.688;2023-05-13T03:32:50;15.77;85.20
69464;DHT22;56665;41.106;16.688;2023-05-13T03:35:54;15.76;84.93
69464;DHT22;56665;41.106;16.688;2023-05-13T03:39:03;15.74;84.99
69464;DHT22;56665;41.106;16.688;2023-05-13T03:42:07;15.76;84.82
69464;DHT22;56665;41.106;16.688;2023-05-13T03:45:13;15.77;84.49
69464;DHT22;56665;41.106;16.688;2023-05-13T03:48:19;15.80;84.30
69464;DHT22;56665;41.106;16.688;2023-05-13T03:51:23;15.80;84.12
69464;DHT22;56665;41.106;16.688;2023-05-13T03:54:27;15.81;84.04
69464;DHT22;56665;41.106;16.688;2023-05-13T03:57:31;15.81;83.91
69464;DHT22;56665;41.106;16.688;2023-05-13T04:00:34;15.87;83.62
69464;DHT22;56665;41.106;16.688;2023-05-13T04:03:38;15.90;83.08
69464;DHT22;56665;41.106;16.688;2023-05-13T04:06:42;15.88;82.97
69464;DHT22;56665;41.106;16.688;2023-05-13T04:09:45;15.87;82.42
69464;DHT22;56665;41.106;16.688;2023-05-13T04:12:49;15.86;82.78
69464;DHT22;56665;41.106;16.688;2023-05-13T04:15:53;15.84;82.90
69464;DHT22;56665;41.106;16.688;2023-05-13T04:18:59;15.87;82.80
69464;DHT22;56665;41.106;16.688;2023-05-13T04:22:04;16.08;82.67
69464;DHT22;56665;41.106;16.688;2023-05-13T04:25:08;16.24;81.21
69464;DHT22;56665;41.106;16.688;2023-05-13T04:28:12;16.28;80.88
69464;DHT22;56665;41.106;16.688;2023-05-13T04:31:18;16.31;80.98
69464;DHT22;56665;41.106;16.688;2023-05-13T04:34:23;16.34;81.10
69464;DHT22;56665;41.106;16.688;2023-05-13T04:37:27;16.38;81.47
69464;DHT22;56665;41.106;16.688;2023-05-13T04:40:35;16.46;81.70
69464;DHT22;56665;41.106;16.688;2023-05-13T04:43:44;16.69;81.66
69464;DHT22;56665;41.106;16.688;2023-05-13T04:46:48;17.13;80.82
69464;DHT22;56665;41.106;16.688;2023-05-13T04:49:52;17.61;79.79
69464;DHT22;56665;41.106;16.688;2023-05-13T04:52:55;17.97;78.43
69464;DHT22;56665;41.106;16.688;2023-05-13T04:56:00;18.31;77.26
69464;DHT22;56665;41.106;16.688;2023-05-13T04:59:07;18.51;76.16
69464;DHT22;56665;41.106;16.688;2023-05-13T05:02:10;18.61;75.76
69464;DHT22;56665;41.106;16.688;2023-05-13T05:05:16;18.74;75.54
69464;DHT22;56665;41.106;16.688;2023-05-13T05:08:20;18.67;75.27
69464;DHT22;56665;41.106;16.688;2023-05-13T05:11:26;18.36;75.90
69464;DHT22;56665;41.106;16.688;2023-05-13T05:14:30;18.12;77.19
69464;DHT22;56665;41.106;16.688;2023-05-13T05:17:34;18.23;77.44
69464;DHT22;56665;41.106;16.688;2023-05-13T05:20:40;18.47;77.56
69464;DHT22;56665;41.106;16.688;2023-05-13T05:23:49;18.81;76.85
69464;DHT22;56665;41.106;16.688;2023-05-13T05:26:53;19.19;75.91
69464;DHT22;56665;41.106;16.688;2023-05-13T05:29:58;19.36;74.88
69464;DHT22;56665;41.106;16.688;2023-05-13T05:33:01;19.35;75.10
69464;DHT22;56665;41.106;16.688;2023-05-13T05:36:06;19.45;74.77
69464;DHT22;56665;41.106;16.688;2023-05-13T05:39:10;19.29;75.29
69464;DHT22;56665;41.106;16.688;2023-05-13T05:42:13;19.29;75.97
69464;DHT22;56665;41.106;16.688;2023-05-13T05:45:17;19.46;75.86
69464;DHT22;56665;41.106;16.688;2023-05-13T05:48:21;19.74;75.05
69464;DHT22;56665;41.106;16.688;2023-05-13T05:51:24;20.07;74.17
69464;DHT22;56665;41.106;16.688;2023-05-13T05:54:29;20.21;73.06
69464;DHT22;56665;41.106;16.688;2023-05-13T05:57:33;20.35;73.14
69464;DHT22;56665;41.106;16.688;2023-05-13T06:00:37;20.59;72.10
69464;DHT22;56665;41.106;16.688;2023-05-13T06:03:41;20.98;71.53
69464;DHT22;56665;41.106;16.688;2023-05-13T06:06:45;21.76;69.09
69464;DHT22;56665;41.106;16.688;2023-05-13T06:09:50;22.72;66.24
69464;DHT22;56665;41.106;16.688;2023-05-13T06:12:54;23.05;64.11
69464;DHT22;56665;41.106;16.688;2023-05-13T06:15:58;23.19;64.62
69464;DHT22;56665;41.106;16.688;2023-05-13T06:19:03;23.06;64.23
69464;DHT22;56665;41.106;16.688;2023-05-13T06:22:10;23.05;64.54
69464;DHT22;56665;41.106;16.688;2023-05-13T06:25:14;23.57;63.11
69464;DHT22;56665;41.106;16.688;2023-05-13T06:28:17;23.97;62.51
69464;DHT22;56665;41.106;16.688;2023-05-13T06:31:21;24.11;61.01
69464;DHT22;56665;41.106;16.688;2023-05-13T06:34:25;24.29;61.76
69464;DHT22;56665;41.106;16.688;2023-05-13T06:37:29;24.72;60.30
69464;DHT22;56665;41.106;16.688;2023-05-13T06:40:33;25.10;58.97
69464;DHT22;56665;41.106;16.688;2023-05-13T06:43:37;25.30;58.45
69464;DHT22;56665;41.106;16.688;2023-05-13T06:46:58;25.11;58.62
69464;DHT22;56665;41.106;16.688;2023-05-13T06:50:02;25.78;57.04
69464;DHT22;56665;41.106;16.688;2023-05-13T06:53:08;26.65;55.07
69464;DHT22;56665;41.106;16.688;2023-05-13T06:56:13;27.38;53.42
69464;DHT22;56665;41.106;16.688;2023-05-13T06:59:17;27.87;51.89
69464;DHT22;56665;41.106;16.688;2023-05-13T07:02:21;27.87;51.30
69464;DHT22;56665;41.106;16.688;2023-05-13T07:05:24;27.95;51.81
69464;DHT22;56665;41.106;16.688;2023-05-13T07:08:29;27.63;52.10
69464;DHT22;56665;41.106;16.688;2023-05-13T07:11:33;26.84;53.42
69464;DHT22;56665;41.106;16.688;2023-05-13T07:14:36;26.52;54.03
69464;DHT22;56665;41.106;16.688;2023-05-13T07:17:41;26.72;54.06
69464;DHT22;56665;41.106;16.688;2023-05-13T07:20:44;27.09;52.90
69464;DHT22;56665;41.106;16.688;2023-05-13T07:23:48;27.57;51.59
69464;DHT22;56665;41.106;16.688;2023-05-13T07:26:52;27.64;51.63
69464;DHT22;56665;41.106;16.688;2023-05-13T07:29:58;27.23;52.51
69464;DHT22;56665;41.106;16.688;2023-05-13T07:33:02;27.47;52.48
69464;DHT22;56665;41.106;16.688;2023-05-13T07:36:06;27.43;52.11
69464;DHT22;56665;41.106;16.688;2023-05-13T07:39:09;27.85;51.29
69464;DHT22;56665;41.106;16.688;2023-05-13T07:42:13;27.20;52.55
69464;DHT22;56665;41.106;16.688;2023-05-13T07:45:18;26.36;54.51
69464;DHT22;56665;41.106;16.688;2023-05-13T07:48:21;25.11;57.04
69464;DHT22;56665;41.106;16.688;2023-05-13T07:51:27;24.25;59.48
69464;DHT22;56665;41.106;16.688;2023-05-13T07:54:32;23.55;61.16
69464;DHT22;56665;41.106;16.688;2023-05-13T07:57:36;23.02;62.92
69464;DHT22;56665;41.106;16.688;2023-05-13T08:00:41;22.72;63.44
69464;DHT22;56665;41.106;16.688;2023-05-13T08:03:44;22.34;63.80
69464;DHT22;56665;41.106;16.688;2023-05-13T08:06:48;22.23;64.55
69464;DHT22;56665;41.106;16.688;2023-05-13T08:09:52;22.07;65.71
69464;DHT22;56665;41.106;16.688;2023-05-13T08:12:56;22.07;68.32
69464;DHT22;56665;41.106;16.688;2023-05-13T08:16:00;22.38;69.07
69464;DHT22;56665;41.106;16.688;2023-05-13T08:19:06;22.47;68.91
69464;DHT22;56665;41.106;16.688;2023-05-13T08:22:10;22.40;69.67
69464;DHT22;56665;41.106;16.688;2023-05-13T08:25:14;21.77;68.79
69464;DHT22;56665;41.106;16.688;2023-05-13T08:28:18;21.35;69.92
69464;DHT22;56665;41.106;16.688;2023-05-13T08:31:21;21.07;70.55
69464;DHT22;56665;41.106;16.688;2023-05-13T08:34:27;21.04;71.65
69464;DHT22;56665;41.106;16.688;2023-05-13T08:37:30;20.98;72.50
69464;DHT22;56665;41.106;16.688;2023-05-13T08:40:34;20.73;72.60
69464;DHT22;56665;41.106;16.688;2023-05-13T08:43:38;20.77;73.32
69464;DHT22;56665;41.106;16.688;2023-05-13T08:46:49;20.80;73.81
69464;DHT22;56665;41.106;16.688;2023-05-13T08:49:55;20.90;73.57
69464;DHT22;56665;41.106;16.688;2023-05-13T08:52:59;21.01;73.46
69464;DHT22;56665;41.106;16.688;2023-05-13T08:56:04;20.93;73.90
69464;DHT22;56665;41.106;16.688;2023-05-13T08:59:08;20.96;74.14
69464;DHT22;56665;41.106;16.688;2023-05-13T09:02:12;21.01;74.23
69464;DHT22;56665;41.106;16.688;2023-05-13T09:05:16;21.04;73.60
69464;DHT22;56665;41.106;16.688;2023-05-13T09:08:20;21.03;73.28
69464;DHT22;56665;41.106;16.688;2023-05-13T09:11:24;20.91;73.41
69464;DHT22;56665;41.106;16.688;2023-05-13T09:14:29;20.93;73.57
69464;DHT22;56665;41.106;16.688;2023-05-13T09:17:39;21.21;73.55
69464;DHT22;56665;41.106;16.688;2023-05-13T09:20:44;21.06;73.22
69464;DHT22;56665;41.106;16.688;2023-05-13T09:23:48;20.90;74.52
69464;DHT22;56665;41.106;16.688;2023-05-13T09:26:52;20.72;75.16
69464;DHT22;56665;41.106;16.688;2023-05-13T09:29:59;20.64;75.66
69464;DHT22;56665;41.106;16.688;2023-05-13T09:33:07;20.29;76.32
69464;DHT22;56665;41.106;16.688;2023-05-13T09:36:12;20.11;77.60
69464;DHT22;56665;41.106;16.688;2023-05-13T09:39:16;19.57;75.97
69464;DHT22;56665;41.106;16.688;2023-05-13T09:42:20;19.60;74.56
69464;DHT22;56665;41.106;16.688;2023-05-13T09:45:25;19.54;73.57
69464;DHT22;56665;41.106;16.688;2023-05-13T09:48:31;19.53;73.91
69464;DHT22;56665;41.106;16.688;2023-05-13T09:51:35;19.43;69.79
69464;DHT22;56665;41.106;16.688;2023-05-13T09:54:38;19.42;67.00
69464;DHT22;56665;41.106;16.688;2023-05-13T09:57:42;19.47;66.60
69464;DHT22;56665;41.106;16.688;2023-05-13T10:00:46;19.37;67.57
69464;DHT22;56665;41.106;16.688;2023-05-13T10:03:50;19.42;67.73
69464;DHT22;56665;41.106;16.688;2023-05-13T10:06:57;19.49;68.24
69464;DHT22;56665;41.106;16.688;2023-05-13T10:10:02;19.58;68.28
69464;DHT22;56665;41.106;16.688;2023-05-13T10:13:14;19.64;68.16
69464;DHT22;56665;41.106;16.688;2023-05-13T10:16:21;19.67;68.63
69464;DHT22;56665;41.106;16.688;2023-05-13T10:19:26;19.74;68.42
69464;DHT22;56665;41.106;16.688;2023-05-13T10:22:31;19.67;68.63
69464;DHT22;56665;41.106;16.688;2023-05-13T10:25:36;19.61;69.43
69464;DHT22;56665;41.106;16.688;2023-05-13T10:28:41;19.68;69.51
69464;DHT22;56665;41.106;16.688;2023-05-13T10:31:46;19.91;69.33
69464;DHT22;56665;41.106;16.688;2023-05-13T10:34:58;20.01;69.17
69464;DHT22;56665;41.106;16.688;2023-05-13T10:38:52;19.88;69.45
69464;DHT22;56665;41.106;16.688;2023-05-13T10:44:56;19.87;70.79
69464;DHT22;56665;41.106;16.688;2023-05-13T10:48:10;20.21;71.32
69464;DHT22;56665;41.106;16.688;2023-05-13T10:51:16;20.96;69.40
69464;DHT22;56665;41.106;16.688;2023-05-13T10:54:22;22.00;65.61
69464;DHT22;56665;41.106;16.688;2023-05-13T10:57:28;23.53;62.16
69464;DHT22;56665;41.106;16.688;2023-05-13T11:00:33;24.05;60.82
69464;DHT22;56665;41.106;16.688;2023-05-13T11:03:38;24.29;57.85
69464;DHT22;56665;41.106;16.688;2023-05-13T11:06:43;24.26;59.05
69464;DHT22;56665;41.106;16.688;2023-05-13T11:09:48;24.45;58.87
69464;DHT22;56665;41.106;16.688;2023-05-13T11:13:19;24.45;58.76
69464;DHT22;56665;41.106;16.688;2023-05-13T11:16:24;24.33;58.63
69464;DHT22;56665;41.106;16.688;2023-05-13T11:22:33;23.97;60.09
69464;DHT22;56665;41.106;16.688;2023-05-13T11:25:39;23.42;61.90
69464;DHT22;56665;41.106;16.688;2023-05-13T11:28:56;22.44;63.45
69464;DHT22;56665;41.106;16.688;2023-05-13T11:32:02;22.30;64.68
69464;DHT22;56665;41.106;16.688;2023-05-13T11:35:06;21.83;65.66
69464;DHT22;56665;41.106;16.688;2023-05-13T11:38:21;21.63;66.64
69464;DHT22;56665;41.106;16.688;2023-05-13T11:41:30;21.38;68.03
69464;DHT22;56665;41.106;16.688;2023-05-13T11:44:35;21.14;68.14
69464;DHT22;56665;41.106;16.688;2023-05-13T11:47:39;21.11;69.66
69464;DHT22;56665;41.106;16.688;2023-05-13T11:50:43;20.90;68.90
69464;DHT22;56665;41.106;16.688;2023-05-13T11:53:46;20.80;69.03
69464;DHT22;56665;41.106;16.688;2023-05-13T11:56:50;20.83;69.14
69464;DHT22;56665;41.106;16.688;2023-05-13T11:59:59;20.73;69.58
69464;DHT22;56665;41.106;16.688;2023-05-13T12:03:09;20.79;69.92
69464;DHT22;56665;41.106;16.688;2023-05-13T12:06:14;20.70;69.86
69464;DHT22;56665;41.106;16.688;2023-05-13T12:09:21;20.66;69.65
69464;DHT22;56665;41.106;16.688;2023-05-13T12:12:26;20.69;70.77
69464;DHT22;56665;41.106;16.688;2023-05-13T12:15:30;20.87;70.90
69464;DHT22;56665;41.106;16.688;2023-05-13T12:18:33;20.63;70.73
69464;DHT22;56665;41.106;16.688;2023-05-13T12:21:37;20.32;71.55
69464;DHT22;56665;41.106;16.688;2023-05-13T12:24:41;20.14;72.61
69464;DHT22;56665;41.106;16.688;2023-05-13T12:27:50;20.32;72.81
69464;DHT22;56665;41.106;16.688;2023-05-13T12:34:02;20.38;72.62
69464;DHT22;56665;41.106;16.688;2023-05-13T12:37:11;20.35;73.44
69464;DHT22;56665;41.106;16.688;2023-05-13T12:40:15;20.25;74.63
69464;DHT22;56665;41.106;16.688;2023-05-13T12:43:19;20.15;74.71
69464;DHT22;56665;41.106;16.688;2023-05-13T12:46:23;20.11;75.18
69464;DHT22;56665;41.106;16.688;2023-05-13T12:49:27;20.15;75.58
69464;DHT22;56665;41.106;16.688;2023-05-13T12:52:31;19.82;77.06
69464;DHT22;56665;41.106;16.688;2023-05-13T12:55:35;19.64;78.77
69464;DHT22;56665;41.106;16.688;2023-05-13T12:58:42;19.50;79.98
69464;DHT22;56665;41.106;16.688;2023-05-13T13:01:45;19.40;79.68
69464;DHT22;56665;41.106;16.688;2023-05-13T13:04:51;19.37;80.28
69464;DHT22;56665;41.106;16.688;2023-05-13T13:07:55;19.19;80.44
69464;DHT22;56665;41.106;16.688;2023-05-13T13:11:00;19.10;80.98
69464;DHT22;56665;41.106;16.688;2023-05-13T13:14:04;19.40;80.54
69464;DHT22;56665;41.106;16.688;2023-05-13T13:17:07;19.75;79.85
69464;DHT22;56665;41.106;16.688;2023-05-13T13:20:11;20.09;78.22
69464;DHT22;56665;41.106;16.688;2023-05-13T13:23:15;20.22;76.74
69464;DHT22;56665;41.106;16.688;2023-05-13T13:26:20;20.30;75.95
69464;DHT22;56665;41.106;16.688;2023-05-13T13:29:25;20.30;74.77
69464;DHT22;56665;41.106;16.688;2023-05-13T13:32:28;20.18;75.27
69464;DHT22;56665;41.106;16.688;2023-05-13T13:35:33;20.05;75.08
69464;DHT22;56665;41.106;16.688;2023-05-13T13:38:36;20.11;74.99
69464;DHT22;56665;41.106;16.688;2023-05-13T13:41:40;19.87;75.51
69464;DHT22;56665;41.106;16.688;2023-05-13T13:44:44;19.66;76.47
69464;DHT22;56665;41.106;16.688;2023-05-13T13:47:48;19.73;76.40
69464;DHT22;56665;41.106;16.688;2023-05-13T13:50:52;19.49;77.00
69464;DHT22;56665;41.106;16.688;2023-05-13T13:54:03;19.33;78.01
69464;DHT22;56665;41.106;16.688;2023-05-13T13:57:06;19.30;77.97
69464;DHT22;56665;41.106;16.688;2023-05-13T14:00:10;19.22;78.06
69464;DHT22;56665;41.106;16.688;2023-05-13T14:03:14;19.18;78.45
69464;DHT22;56665;41.106;16.688;2023-05-13T14:06:18;19.08;80.26
69464;DHT22;56665;41.106;16.688;2023-05-13T14:09:22;19.05;80.87
69464;DHT22;56665;41.106;16.688;2023-05-13T14:12:26;18.82;81.74
69464;DHT22;56665;41.106;16.688;2023-05-13T14:15:30;18.78;83.23
69464;DHT22;56665;41.106;16.688;2023-05-13T14:18:33;18.74;83.36
69464;DHT22;56665;41.106;16.688;2023-05-13T14:21:37;19.19;84.07
69464;DHT22;56665;41.106;16.688;2023-05-13T14:24:41;19.43;83.50
69464;DHT22;56665;41.106;16.688;2023-05-13T14:27:44;19.39;83.37
69464;DHT22;56665;41.106;16.688;2023-05-13T14:30:48;18.96;83.03
69464;DHT22;56665;41.106;16.688;2023-05-13T14:33:52;18.57;84.60
69464;DHT22;56665;41.106;16.688;2023-05-13T14:36:56;18.31;84.70
69464;DHT22;56665;41.106;16.688;2023-05-13T14:39:59;18.28;83.33
69464;DHT22;56665;41.106;16.688;2023-05-13T14:43:03;18.56;81.65
69464;DHT22;56665;41.106;16.688;2023-05-13T14:46:07;18.72;79.26
69464;DHT22;56665;41.106;16.688;2023-05-13T14:49:11;18.94;79.36
69464;DHT22;56665;41.106;16.688;2023-05-13T14:52:16;18.79;79.48
69464;DHT22;56665;41.106;16.688;2023-05-13T14:55:20;18.63;79.43
69464;DHT22;56665;41.106;16.688;2023-05-13T14:58:24;18.43;79.91
69464;DHT22;56665;41.106;16.688;2023-05-13T15:01:27;18.23;80.00
69464;DHT22;56665;41.106;16.688;2023-05-13T15:04:31;18.10;80.55
69464;DHT22;56665;41.106;16.688;2023-05-13T15:07:35;17.97;80.76
69464;DHT22;56665;41.106;16.688;2023-05-13T15:10:39;17.89;81.52
69464;DHT22;56665;41.106;16.688;2023-05-13T15:13:43;17.82;81.48
69464;DHT22;56665;41.106;16.688;2023-05-13T15:16:46;17.83;82.24
69464;DHT22;56665;41.106;16.688;2023-05-13T15:19:50;17.83;82.31
69464;DHT22;56665;41.106;16.688;2023-05-13T15:22:54;17.86;82.62
69464;DHT22;56665;41.106;16.688;2023-05-13T15:25:59;17.81;85.08
69464;DHT22;56665;41.106;16.688;2023-05-13T15:29:03;17.62;86.26
69464;DHT22;56665;41.106;16.688;2023-05-13T15:32:07;17.38;87.51
69464;DHT22;56665;41.106;16.688;2023-05-13T15:35:10;17.27;88.91
69464;DHT22;56665;41.106;16.688;2023-05-13T15:38:14;17.17;89.18
69464;DHT22;56665;41.106;16.688;2023-05-13T15:41:18;17.20;90.14
69464;DHT22;56665;41.106;16.688;2023-05-13T15:44:21;17.44;90.15
69464;DHT22;56665;41.106;16.688;2023-05-13T15:47:25;17.59;89.77
69464;DHT22;56665;41.106;16.688;2023-05-13T15:50:29;17.58;89.35
69464;DHT22;56665;41.106;16.688;2023-05-13T15:53:33;17.59;89.16
69464;DHT22;56665;41.106;16.688;2023-05-13T15:56:37;17.55;89.55
69464;DHT22;56665;41.106;16.688;2023-05-13T15:59:41;17.65;89.52
69464;DHT22;56665;41.106;16.688;2023-05-13T16:02:45;17.65;89.72
69464;DHT22;56665;41.106;16.688;2023-05-13T16:05:49;17.79;89.25
69464;DHT22;56665;41.106;16.688;2023-05-13T16:08:55;17.93;88.38
69464;DHT22;56665;41.106;16.688;2023-05-13T16:11:59;17.85;88.69
69464;DHT22;56665;41.106;16.688;2023-05-13T16:15:03;17.79;88.58
69464;DHT22;56665;41.106;16.688;2023-05-13T16:18:08;17.51;88.59
69464;DHT22;56665;41.106;16.688;2023-05-13T16:21:12;17.38;89.14
69464;DHT22;56665;41.106;16.688;2023-05-13T16:24:16;17.26;89.73
69464;DHT22;56665;41.106;16.688;2023-05-13T16:27:19;17.13;89.83
69464;DHT22;56665;41.106;16.688;2023-05-13T16:30:23;17.17;90.06
69464;DHT22;56665;41.106;16.688;2023-05-13T16:33:27;17.13;90.18
69464;DHT22;56665;41.106;16.688;2023-05-13T16:36:31;17.06;89.49
69464;DHT22;56665;41.106;16.688;2023-05-13T16:39:35;17.07;90.15
69464;DHT22;56665;41.106;16.688;2023-05-13T16:42:38;16.99;90.84
69464;DHT22;56665;41.106;16.688;2023-05-13T16:45:42;16.95;91.22
69464;DHT22;56665;41.106;16.688;2023-05-13T16:48:46;16.93;91.44
69464;DHT22;56665;41.106;16.688;2023-05-13T16:51:50;16.90;91.71
69464;DHT22;56665;41.106;16.688;2023-05-13T16:54:54;16.93;91.97
69464;DHT22;56665;41.106;16.688;2023-05-13T16:57:58;16.85;92.11
69464;DHT22;56665;41.106;16.688;2023-05-13T17:01:03;16.82;92.60
69464;DHT22;56665;41.106;16.688;2023-05-13T17:04:07;16.70;92.72
69464;DHT22;56665;41.106;16.688;2023-05-13T17:07:11;16.65;93.18
69464;DHT22;56665;41.106;16.688;2023-05-13T17:10:14;16.51;93.49
69464;DHT22;56665;41.106;16.688;2023-05-13T17:13:18;16.49;93.75
69464;DHT22;56665;41.106;16.688;2023-05-13T17:16:22;16.39;94.12
69464;DHT22;56665;41.106;16.688;2023-05-13T17:19:26;16.38;94.25
69464;DHT22;56665;41.106;16.688;2023-05-13T17:22:30;16.38;94.30
69464;DHT22;56665;41.106;16.688;2023-05-13T17:25:34;16.29;94.27
69464;DHT22;56665;41.106;16.688;2023-05-13T17:28:37;16.14;94.33
69464;DHT22;56665;41.106;16.688;2023-05-13T17:31:42;16.11;94.50
69464;DHT22;56665;41.106;16.688;2023-05-13T17:34:46;16.06;94.60
69464;DHT22;56665;41.106;16.688;2023-05-13T17:37:50;16.06;94.70
69464;DHT22;56665;41.106;16.688;2023-05-13T17:40:54;16.04;94.72
69464;DHT22;56665;41.106;16.688;2023-05-13T17:43:58;16.04;94.78
69464;DHT22;56665;41.106;16.688;2023-05-13T17:47:02;16.04;94.74
69464;DHT22;56665;41.106;16.688;2023-05-13T17:50:06;15.90;94.75
69464;DHT22;56665;41.106;16.688;2023-05-13T17:53:10;15.96;94.70
69464;DHT22;56665;41.106;16.688;2023-05-13T17:56:14;15.98;94.75
69464;DHT22;56665;41.106;16.688;2023-05-13T17:59:17;15.96;94.79
69464;DHT22;56665;41.106;16.688;2023-05-13T18:02:21;16.03;94.77
69464;DHT22;56665;41.106;16.688;2023-05-13T18:05:26;15.98;94.54
69464;DHT22;56665;41.106;16.688;2023-05-13T18:08:30;15.91;94.52
69464;DHT22;56665;41.106;16.688;2023-05-13T18:11:33;15.93;94.66
69464;DHT22;56665;41.106;16.688;2023-05-13T18:14:37;15.94;94.64
69464;DHT22;56665;41.106;16.688;2023-05-13T18:17:41;15.94;94.66
69464;DHT22;56665;41.106;16.688;2023-05-13T18:20:45;15.98;94.67
69464;DHT22;56665;41.106;16.688;2023-05-13T18:23:48;16.06;94.65
69464;DHT22;56665;41.106;16.688;2023-05-13T18:26:52;16.00;94.54
69464;DHT22;56665;41.106;16.688;2023-05-13T18:29:56;16.04;94.59
69464;DHT22;56665;41.106;16.688;2023-05-13T18:33:00;16.04;94.49
69464;DHT22;56665;41.106;16.688;2023-05-13T18:36:04;16.00;94.56
69464;DHT22;56665;41.106;16.688;2023-05-13T18:39:08;16.00;94.54
69464;DHT22;56665;41.106;16.688;2023-05-13T18:42:12;15.97;94.56
69464;DHT22;56665;41.106;16.688;2023-05-13T18:45:15;16.01;94.54
69464;DHT22;56665;41.106;16.688;2023-05-13T18:48:19;16.00;94.58
69464;DHT22;56665;41.106;16.688;2023-05-13T18:51:23;16.01;94.58
69464;DHT22;56665;41.106;16.688;2023-05-13T18:54:27;16.01;94.55
69464;DHT22;56665;41.106;16.688;2023-05-13T18:57:31;16.07;94.41
69464;DHT22;56665;41.106;16.688;2023-05-13T19:00:35;16.06;94.45
69464;DHT22;56665;41.106;16.688;2023-05-13T19:03:39;15.98;94.53
69464;DHT22;56665;41.106;16.688;2023-05-13T19:06:43;15.93;94.67
69464;DHT22;56665;41.106;16.688;2023-05-13T19:09:47;15.97;94.73
69464;DHT22;56665;41.106;16.688;2023-05-13T19:12:51;16.01;94.81
69464;DHT22;56665;41.106;16.688;2023-05-13T19:15:54;16.07;94.83
69464;DHT22;56665;41.106;16.688;2023-05-13T19:18:58;15.98;94.68
69464;DHT22;56665;41.106;16.688;2023-05-13T19:22:02;15.98;94.67
69464;DHT22;56665;41.106;16.688;2023-05-13T19:25:05;16.00;94.79